Terminal Aerodrome Forecast
Issued by NWS

Home | Current Version | Previous Version | Graphics & Text | Print | Product List | Glossary On
Versions: 1 2 3 4 5 6 7 8 9 10 11 12 13 14 15 16
966
FTUS43 KMPX 271130
TAFRNH
TAF
KRNH 271130Z 2712/2812 27004KT P6SM FEW250
     FM271600 26006KT P6SM OVC100
     FM280100 22003KT P6SM SCT200
     FM281000 22003KT P6SM BKN080=

USA.gov is the U.S. government's official web portal to all federal, state and local government web resources and services.